Portada
METAR-TAF:

METAR-TAF

Aeropuertos :

Yanbu, Arabia Saudita

latitud: 24-09N, longitud: 038-04E, altitud: 8 m

Observación

El informe se hizo hace 40 minutos, a las 11:00 UTC
Viento 6 kt del sur
Temperatura 32°C
Humedad 20%
Presión 1012 hPa
Visibilidad 10 km o más
sin nubes por debajo de 1500 m y sin presencia de cumulonimbus.

METAR: OEYN 271100Z 19006KT CAVOK 32/06 Q1012 NOSIG

Hora: 14:40 (11:40 UTC)

Pronóstico

El informe se hizo hace 40 minutos, a las 11:00 UTC
Pronóstico válido del 27 a las 12 UTC al 28 a las 18 UTC
Viento 14 kt del noroeste
Visibilidad: 7000 m
Evolucionando progresivamente
del 27 a las 18 UTC al 27 a las 20 UTC
Viento 6 kt del este-sureste

TAF: OEYN 271100Z 2712/2818 31014KT 7000 NSC BECMG 2718/2720 11006KT

Observaciones y pronósticos meteorológicos de más de 4000 aeropuertos (mensajes METAR y TAF).

Los puntos amarillos y rojos representan las estaciones disponibles.

Ponga el ratón en el punto deseado para ver el nombre de la estación.

Haga clic para ver las observaciones y los pronósticos meteorológicos.

Para cambiar el mapa : haga clic en los botones verdes con una cruz de color negro para hacer un zoom, en el botón verde con un guión para alejar o en las flechas verdes para mapas adyacentes.


METAR-TAF: